Text analysis for Marcus (marcus590)

Return to profile of Marcus (marcus590)

View texts not yet raced by Marcus (marcus590)

Sorted by best race

Rank Text Best WPM Overall Difficulty Relative Speed Text Length Races Average WPM Last race
1. You know what really hurts? Being denied the right to give u... 89.22 0.9670 0.4084 255 1 89.22 2019-01-21
2. I was selfish to assume you loved me more than you loved you... 86.38 1.0095 0.3325 103 1 86.38 2019-01-21
3. It led me by the hand, as if to fill the niches in the memor... 79.04 1.0326 0.2279 241 1 79.04 2019-01-21
4. And I don't believe in the existence of angels but looking a... 78.30 1.0774 0.1941 304 1 78.30 2019-01-21
5. How often do you think about why your friends came into your... 77.26 1.0162 0.2078 389 1 77.26 2018-07-21
6. How many times have you seen the leader of a race have a mec... 74.48 1.0155 0.1655 232 1 74.48 2018-07-21
7. Estella, to the last hour of my life, you cannot choose but ... 73.82 1.0234 0.1535 372 1 73.82 2019-01-21
8. For once I can say, "This is mine you can't take it." As lon... 72.11 0.9606 0.1395 147 1 72.11 2018-07-21
9. I've heard a lot of talk of Billy Mitchell, and I've heard a... 71.86 1.0215 0.1178 373 1 71.86 2018-07-21
10. Yes, I read the letter, you licentious quack! And what facil... 69.62 0.8540 0.2007 125 1 69.62 2019-01-21
11. The great ideas of Xerox PARC which were turned into a great... 67.66 0.9018 0.1443 290 1 67.66 2018-07-21
12. I pulled up to the house about 7 or 8, and I yelled to the c... 64.76 0.8797 0.1467 184 1 64.76 2019-01-21
13. Break my heart. Break it a thousand times if you like. It wa... 62.73 0.8942 0.0728 94 1 62.73 2017-07-15
14. The inner surface of the cell wall touches the cytoplasmic m... 62.57 0.9072 0.0804 237 1 62.57 2017-07-15
15. What good are prayers and shrines to a person mad with love?... 58.28 1.0373 -0.0974 170 1 58.28 2017-07-15
16. Here, the oregano and other trace materials sitting on the s... 52.02 0.9873 -0.1701 155 1 52.02 2015-03-22
17. Even the best-designed chair won't make up for bad posture. ... 46.27 1.0004 -0.2781 212 1 46.27 2015-03-22
18. I will need my spectacles and a clear head. Today I broke my... 45.84 1.0214 -0.3052 166 1 45.84 2015-03-22
19. So what's in this for you? Should you rush out in search of ... 40.08 0.8628 -0.2368 196 1 40.08 2014-07-11
20. It takes more than a calorie of fossil fuel energy to produc... 34.92 0.8723 -0.3303 185 1 34.92 2014-07-30
21. Warmer water increases the moisture content of storms, and w... 33.53 0.9776 -0.4531 308 1 33.53 2014-07-11
22. Do I really look like a guy with a plan? You know what I am?... 31.66 0.8975 -0.4029 268 1 31.66 2014-07-11